Terminal Aerodrome Forecast
Issued by NWS

Home | Current Version | Previous Version | Text Only | Print | Product List | Glossary On
Versions: 1 2 3 4 5 6 7 8 9 10 11 12 13 14 15 16 17 18 19 20
000
FTUS44 KCRP 211400 AAB
TAFLRD
TAF AMD
KLRD 211402Z 2114/2212 06008KT P6SM SCT004 SCT030 BKN200
      TEMPO 2114/2115 BKN004
     FM211900 08010KT P6SM VCTS SCT050CB
      TEMPO 2120/2123 5SM -TSRA BKN035CB
     FM220200 10005KT P6SM FEW040
     FM220800 05003KT P6SM FEW025=

USA.gov is the U.S. government's official web portal to all federal, state and local government web resources and services.